Time;durP1;ratioP1;P1;durP2;ratioP2;P2;SDS_P1;SDS_P2;PMS_P1;PMS_P2;Temp;Humidity;BMP_temperature;BMP_pressure;BME280_temperature;BME280_humidity;BME280_pressure;Samples;Min_cycle;Max_cycle;Signal;HPM_P1;HPM_P2
2022/08/09 00:00:27;;;;;;;10.57;10.27;;;20.20;99.90;;;;;;5118431;27;20271;-79
2022/08/09 00:02:56;;;;;;;10.30;10.00;;;20.10;99.90;;;;;;5120914;27;20225;-80
2022/08/09 00:05:23;;;;;;;10.43;10.13;;;20.00;99.90;;;;;;5119218;27;20221;-80
2022/08/09 00:07:51;;;;;;;10.50;10.20;;;20.00;99.90;;;;;;5119814;27;20232;-80
2022/08/09 00:10:18;;;;;;;10.70;10.40;;;19.90;99.90;;;;;;5130048;27;20292;-80
2022/08/09 00:12:46;;;;;;;10.40;10.10;;;19.90;99.90;;;;;;5130956;27;20288;-79
2022/08/09 00:15:13;;;;;;;10.50;10.20;;;19.80;99.90;;;;;;5125986;27;20221;-80
2022/08/09 00:17:42;;;;;;;10.13;9.82;;;19.80;99.90;;;;;;5117620;27;20245;-80
2022/08/09 00:20:12;;;;;;;10.05;9.75;;;19.70;99.90;;;;;;5109316;28;20266;-80
2022/08/09 00:22:39;;;;;;;10.00;9.70;;;19.70;99.90;;;;;;5111069;28;20257;-80
2022/08/09 00:25:08;;;;;;;10.13;9.82;;;19.40;99.90;;;;;;5109212;28;20684;-80
2022/08/09 00:27:36;;;;;;;10.20;9.90;;;19.20;99.90;;;;;;5102541;28;20257;-80
2022/08/09 00:30:05;;;;;;;10.40;10.10;;;19.20;99.90;;;;;;5099740;28;20279;-80
2022/08/09 00:32:35;;;;;;;10.52;10.23;;;19.10;99.90;;;;;;5099239;28;20324;-80
2022/08/09 00:35:04;;;;;;;10.15;9.85;;;19.00;99.90;;;;;;5098405;28;20276;-80
2022/08/09 00:37:35;;;;;;;10.50;10.20;;;18.90;99.90;;;;;;5099103;28;20238;-80
2022/08/09 00:40:03;;;;;;;10.50;10.20;;;18.90;99.90;;;;;;5098617;28;20225;-80
2022/08/09 00:42:33;;;;;;;10.10;9.80;;;18.80;99.90;;;;;;5099499;28;20233;-80
2022/08/09 00:45:03;;;;;;;10.07;9.77;;;18.80;99.90;;;;;;5097898;28;20232;-80
2022/08/09 00:47:32;;;;;;;10.48;10.18;;;18.70;99.90;;;;;;5098883;28;20233;-80
2022/08/09 00:50:01;;;;;;;10.30;10.00;;;18.70;99.90;;;;;;5099140;28;20229;-80
2022/08/09 00:52:30;;;;;;;10.18;9.88;;;18.70;99.90;;;;;;5098147;28;20317;-80
2022/08/09 00:55:01;;;;;;;10.13;9.82;;;18.70;99.90;;;;;;5098156;28;20232;-80
2022/08/09 00:57:31;;;;;;;9.80;9.50;;;18.70;99.90;;;;;;5098357;28;20222;-80
2022/08/09 00:59:59;;;;;;;10.10;9.80;;;18.50;99.90;;;;;;5098512;28;20234;-80
2022/08/09 01:02:31;;;;;;;10.10;9.80;;;18.40;99.90;;;;;;5097977;28;20233;-80
2022/08/09 01:05:06;;;;;;;10.32;10.02;;;18.30;99.90;;;;;;5097874;28;20287;-80
2022/08/09 01:07:54;;;;;;;9.95;9.65;;;18.30;99.90;;;;;;5098643;28;20660;-79
2022/08/09 01:10:32;;;;;;;10.05;9.75;;;18.30;99.90;;;;;;5098189;28;20229;-79
2022/08/09 01:13:12;;;;;;;10.23;9.93;;;18.20;99.90;;;;;;5096466;28;20225;-80
2022/08/09 01:15:45;;;;;;;10.20;9.90;;;18.20;99.90;;;;;;5096931;28;20228;-81
2022/08/09 01:18:17;;;;;;;10.20;9.90;;;18.10;99.90;;;;;;5097807;28;20386;-80
2022/08/09 01:20:54;;;;;;;10.40;10.10;;;18.00;99.90;;;;;;5101455;28;20719;-79
2022/08/09 01:23:40;;;;;;;10.50;10.20;;;17.80;99.90;;;;;;5100929;28;20288;-80
2022/08/09 01:26:54;;;;;;;10.20;9.90;;;17.70;99.90;;;;;;5100442;28;20241;-80
2022/08/09 01:29:31;;;;;;;10.27;9.98;;;17.60;99.90;;;;;;5092126;28;20229;-80
2022/08/09 01:32:03;;;;;;;10.18;9.88;;;17.50;99.90;;;;;;5101231;28;20218;-79
2022/08/09 01:34:33;;;;;;;10.00;9.70;;;17.50;99.90;;;;;;5100044;28;20277;-80
2022/08/09 01:37:05;;;;;;;9.80;9.50;;;17.50;99.90;;;;;;5100771;28;20222;-80
2022/08/09 01:39:35;;;;;;;9.98;9.68;;;17.50;99.90;;;;;;5101660;28;20229;-80
2022/08/09 01:42:06;;;;;;;9.90;9.60;;;17.50;99.90;;;;;;5100933;28;20233;-80
2022/08/09 01:44:35;;;;;;;9.82;9.52;;;17.60;99.90;;;;;;5100319;28;20309;-80
2022/08/09 01:47:05;;;;;;;9.82;9.52;;;17.60;99.90;;;;;;5100771;28;20243;-80
2022/08/09 01:49:36;;;;;;;9.80;9.50;;;17.50;99.90;;;;;;5101037;28;20221;-80
2022/08/09 01:52:09;;;;;;;9.77;9.48;;;17.50;99.90;;;;;;5100530;28;20236;-80
2022/08/09 01:54:41;;;;;;;9.50;9.20;;;17.50;99.90;;;;;;5099859;28;20238;-80
2022/08/09 01:57:15;;;;;;;9.90;9.60;;;17.50;99.90;;;;;;5100391;28;20229;-80
2022/08/09 01:59:48;;;;;;;9.75;9.45;;;17.50;99.90;;;;;;5101017;28;20227;-80
2022/08/09 02:02:17;;;;;;;10.00;9.70;;;17.50;99.90;;;;;;5101741;28;20217;-78
2022/08/09 02:04:45;;;;;;;10.02;9.73;;;17.50;99.90;;;;;;5099763;28;20225;-80
2022/08/09 02:07:20;;;;;;;10.00;9.70;;;17.50;99.90;;;;;;5100893;28;20227;-79
2022/08/09 02:09:53;;;;;;;9.98;9.68;;;17.50;99.90;;;;;;5099628;28;20238;-78
2022/08/09 02:12:29;;;;;;;9.90;9.60;;;17.50;99.90;;;;;;5098581;28;20247;-79
2022/08/09 02:15:01;;;;;;;9.80;9.50;;;17.50;99.90;;;;;;5098396;28;20241;-78
2022/08/09 02:17:31;;;;;;;10.10;9.80;;;17.50;99.90;;;;;;5099701;28;20245;-78
2022/08/09 02:19:59;;;;;;;9.75;9.45;;;17.50;99.90;;;;;;5099552;28;20229;-79
2022/08/09 02:22:39;;;;;;;9.77;9.48;;;17.40;99.90;;;;;;5099073;28;20245;-79
2022/08/09 02:25:16;;;;;;;9.90;9.60;;;17.40;99.90;;;;;;5098323;28;20233;-79
2022/08/09 02:28:04;;;;;;;9.77;9.48;;;17.40;99.90;;;;;;5099133;28;20236;-79
2022/08/09 02:30:38;;;;;;;10.00;9.70;;;17.40;99.90;;;;;;5098902;28;20222;-79
2022/08/09 02:33:06;;;;;;;9.70;9.40;;;17.30;99.90;;;;;;5098042;28;20240;-79
2022/08/09 02:35:37;;;;;;;9.60;9.30;;;17.30;99.90;;;;;;5098435;28;20232;-79
2022/08/09 02:38:06;;;;;;;9.95;9.65;;;17.30;99.90;;;;;;5098714;28;20229;-79
2022/08/09 02:40:36;;;;;;;9.52;9.23;;;17.30;99.90;;;;;;5099176;28;20230;-79
2022/08/09 02:43:08;;;;;;;9.80;9.50;;;17.20;99.90;;;;;;5099048;28;20229;-79
2022/08/09 02:45:48;;;;;;;9.70;9.40;;;17.30;99.90;;;;;;5098000;28;20253;-79
2022/08/09 02:48:18;;;;;;;9.90;9.60;;;17.20;99.90;;;;;;5098859;28;20230;-79
2022/08/09 02:50:55;;;;;;;9.80;9.50;;;17.20;99.90;;;;;;5098742;28;20368;-79
2022/08/09 02:53:28;;;;;;;9.90;9.60;;;17.20;99.90;;;;;;5098628;28;20243;-79
2022/08/09 02:56:03;;;;;;;9.68;9.38;;;17.20;99.90;;;;;;5097999;28;20236;-80
2022/08/09 02:58:42;;;;;;;9.88;9.57;;;17.20;99.90;;;;;;5098675;28;20229;-79
2022/08/09 03:01:10;;;;;;;9.80;9.50;;;17.10;99.90;;;;;;5098752;28;20317;-79
2022/08/09 03:03:40;;;;;;;9.55;9.25;;;17.10;99.90;;;;;;5098668;28;20261;-80
2022/08/09 03:06:13;;;;;;;9.73;9.43;;;17.00;99.90;;;;;;5097847;28;20225;-80
2022/08/09 03:08:48;;;;;;;9.60;9.30;;;17.10;99.90;;;;;;5098211;28;20236;-79
2022/08/09 03:11:19;;;;;;;9.55;9.25;;;17.00;99.90;;;;;;5098203;28;20240;-79
2022/08/09 03:13:56;;;;;;;9.50;9.20;;;17.00;99.90;;;;;;5097925;28;20234;-79
2022/08/09 03:16:25;;;;;;;9.55;9.25;;;17.00;99.90;;;;;;5097996;28;20231;-79
2022/08/09 03:18:55;;;;;;;9.60;9.30;;;17.00;99.90;;;;;;5098174;28;20229;-79
2022/08/09 03:21:24;;;;;;;9.80;9.50;;;17.00;99.90;;;;;;5098624;28;20230;-79
2022/08/09 03:23:52;;;;;;;9.65;9.35;;;17.00;99.90;;;;;;5098548;28;20237;-79
2022/08/09 03:26:22;;;;;;;9.45;9.15;;;17.00;99.90;;;;;;5097353;28;20226;-80
2022/08/09 03:29:01;;;;;;;9.48;9.18;;;16.90;99.90;;;;;;5098237;28;20229;-79
2022/08/09 03:31:30;;;;;;;10.52;10.23;;;16.90;99.90;;;;;;5098390;28;20233;-79
2022/08/09 03:34:01;;;;;;;10.80;10.50;;;16.90;99.90;;;;;;5098100;28;20233;-79
2022/08/09 03:36:29;;;;;;;10.60;10.30;;;16.80;99.90;;;;;;5097922;28;20237;-78
2022/08/09 03:38:58;;;;;;;10.70;10.40;;;16.80;99.90;;;;;;5098394;28;20217;-79
2022/08/09 03:41:28;;;;;;;10.52;10.23;;;16.70;99.90;;;;;;5098342;28;20228;-79
2022/08/09 03:44:06;;;;;;;10.63;10.32;;;16.70;99.90;;;;;;5097613;28;20233;-79
2022/08/09 03:46:35;;;;;;;10.80;10.50;;;16.60;99.90;;;;;;5097661;28;20229;-79
2022/08/09 03:49:05;;;;;;;10.80;10.50;;;16.50;99.90;;;;;;5098275;28;20229;-79
2022/08/09 03:51:35;;;;;;;10.90;10.60;;;16.50;99.90;;;;;;5098788;28;20324;-79
2022/08/09 03:54:02;;;;;;;11.00;10.70;;;16.40;99.90;;;;;;5098048;28;20237;-79
2022/08/09 03:56:30;;;;;;;10.80;10.50;;;16.40;99.90;;;;;;5097686;28;20361;-80
2022/08/09 03:58:59;;;;;;;10.70;10.40;;;16.40;99.90;;;;;;5098576;28;20221;-79
2022/08/09 04:01:32;;;;;;;10.80;10.50;;;16.40;99.90;;;;;;5098432;28;20239;-79
2022/08/09 04:04:03;;;;;;;10.73;10.43;;;16.40;99.90;;;;;;5097920;28;20321;-79
2022/08/09 04:06:32;;;;;;;10.50;10.20;;;16.30;99.90;;;;;;5098648;28;20237;-79
2022/08/09 04:09:05;;;;;;;10.55;10.25;;;16.30;99.90;;;;;;5098423;28;20224;-79
2022/08/09 04:11:57;;;;;;;10.13;9.82;;;16.20;99.90;;;;;;5098820;28;20225;-79
2022/08/09 04:14:40;;;;;;;10.32;10.02;;;16.20;99.90;;;;;;5098550;28;20331;-79
2022/08/09 04:17:08;;;;;;;10.10;9.80;;;16.20;99.90;;;;;;5099331;28;20240;-79
2022/08/09 04:19:36;;;;;;;10.30;10.00;;;16.20;99.90;;;;;;5098351;28;20280;-79
2022/08/09 04:22:04;;;;;;;10.63;10.32;;;16.20;99.90;;;;;;5097455;28;20225;-79
2022/08/09 04:24:34;;;;;;;10.63;10.32;;;16.20;99.90;;;;;;5096521;28;20788;-78
2022/08/09 04:27:03;;;;;;;10.70;10.40;;;16.20;99.90;;;;;;5097535;28;20239;-80
2022/08/09 04:29:36;;;;;;;10.70;10.40;;;16.20;99.90;;;;;;5097454;28;20217;-79
2022/08/09 04:32:05;;;;;;;10.90;10.60;;;16.20;99.90;;;;;;5097596;28;20229;-79
2022/08/09 04:34:33;;;;;;;10.63;10.32;;;16.20;99.90;;;;;;5096872;28;20251;-79
2022/08/09 04:37:01;;;;;;;10.73;10.43;;;16.20;99.90;;;;;;5097601;28;20316;-79
2022/08/09 04:39:29;;;;;;;11.48;11.10;;;16.20;99.90;;;;;;5097003;28;20225;-79
2022/08/09 04:41:56;;;;;;;11.35;11.02;;;16.20;99.90;;;;;;5097074;28;20225;-80
2022/08/09 04:44:23;;;;;;;11.40;11.00;;;16.30;99.90;;;;;;5096644;28;20245;-80
2022/08/09 04:46:52;;;;;;;10.95;10.65;;;16.30;99.90;;;;;;5097035;28;20227;-80
2022/08/09 04:49:20;;;;;;;10.90;10.60;;;16.30;99.90;;;;;;5097304;28;20232;-79
2022/08/09 04:51:47;;;;;;;11.00;10.70;;;16.30;99.90;;;;;;5097309;28;20229;-80
2022/08/09 04:54:14;;;;;;;11.00;10.70;;;16.30;99.90;;;;;;5098989;28;20247;-79
2022/08/09 04:56:42;;;;;;;10.70;10.40;;;16.40;99.90;;;;;;5100904;28;20225;-79
2022/08/09 04:59:09;;;;;;;10.77;10.48;;;16.50;99.90;;;;;;5100438;28;20233;-79
2022/08/09 05:01:37;;;;;;;10.80;10.50;;;16.50;99.90;;;;;;5100817;28;20233;-79
2022/08/09 05:04:16;;;;;;;10.65;10.35;;;16.50;99.90;;;;;;5100510;28;20237;-79
2022/08/09 05:06:45;;;;;;;10.70;10.40;;;16.60;99.90;;;;;;5100803;28;20312;-78
2022/08/09 05:09:15;;;;;;;10.85;10.55;;;16.70;99.90;;;;;;5101078;28;20220;-80
2022/08/09 05:11:45;;;;;;;10.73;10.43;;;16.70;99.90;;;;;;5100942;28;20304;-79
2022/08/09 05:14:14;;;;;;;11.00;10.70;;;16.80;99.90;;;;;;5099784;28;20237;-79
2022/08/09 05:16:43;;;;;;;10.70;10.40;;;16.90;99.90;;;;;;5100374;28;20331;-79
2022/08/09 05:19:24;;;;;;;10.73;10.43;;;16.90;99.90;;;;;;5100395;28;20329;-79
2022/08/09 05:21:52;;;;;;;10.50;10.20;;;17.00;99.90;;;;;;5101790;28;20232;-79
2022/08/09 05:24:22;;;;;;;10.88;10.57;;;17.10;99.90;;;;;;5101176;28;20238;-78
2022/08/09 05:26:51;;;;;;;10.65;10.35;;;17.20;99.90;;;;;;5100638;28;20315;-79
2022/08/09 05:29:19;;;;;;;10.63;10.32;;;17.30;99.90;;;;;;5101175;28;20233;-79
2022/08/09 05:31:50;;;;;;;10.48;10.18;;;17.40;99.90;;;;;;5101215;28;20241;-79
2022/08/09 05:34:21;;;;;;;10.60;10.30;;;17.50;99.90;;;;;;5104744;28;20290;-79
2022/08/09 05:36:48;;;;;;;10.52;10.23;;;17.60;99.90;;;;;;5108093;28;20236;-80
2022/08/09 05:39:17;;;;;;;10.63;10.32;;;17.70;99.90;;;;;;5103390;28;20232;-80
2022/08/09 05:41:48;;;;;;;11.00;10.70;;;17.90;99.90;;;;;;5103629;28;20510;-81
2022/08/09 05:44:16;;;;;;;10.70;10.40;;;18.00;99.90;;;;;;5103337;28;20237;-80
2022/08/09 05:46:45;;;;;;;10.80;10.50;;;18.20;99.90;;;;;;5102903;28;20218;-80
2022/08/09 05:49:15;;;;;;;11.10;10.80;;;18.30;99.90;;;;;;5101907;28;20329;-79
2022/08/09 05:51:45;;;;;;;10.90;10.60;;;18.40;99.90;;;;;;5099746;28;20225;-78
2022/08/09 05:54:14;;;;;;;11.00;10.70;;;18.50;99.90;;;;;;5099444;28;20240;-78
2022/08/09 05:56:42;;;;;;;10.60;10.30;;;18.60;99.90;;;;;;5098439;28;20261;-79
2022/08/09 05:59:10;;;;;;;10.70;10.40;;;18.80;99.90;;;;;;5098738;28;20241;-78
2022/08/09 06:01:38;;;;;;;10.82;10.52;;;18.80;99.90;;;;;;5098546;28;20312;-78
2022/08/09 06:04:05;;;;;;;11.20;10.90;;;19.00;99.90;;;;;;5099251;28;20251;-78
2022/08/09 06:06:33;;;;;;;11.20;10.90;;;19.10;99.90;;;;;;5098703;28;20234;-78
2022/08/09 06:09:03;;;;;;;10.98;10.68;;;19.20;99.90;;;;;;5100186;28;20299;-79
2022/08/09 06:11:31;;;;;;;11.50;11.10;;;19.30;99.90;;;;;;5100854;28;20709;-79
2022/08/09 06:13:59;;;;;;;11.20;10.90;;;19.40;99.90;;;;;;5099785;28;20304;-78
2022/08/09 06:16:26;;;;;;;11.18;10.88;;;19.50;99.90;;;;;;5108897;27;20225;-80
2022/08/09 06:18:53;;;;;;;11.25;10.95;;;19.60;99.90;;;;;;5107485;28;20312;-78
2022/08/09 06:21:22;;;;;;;10.90;10.60;;;19.80;99.90;;;;;;5100967;28;20240;-78
2022/08/09 06:23:51;;;;;;;11.25;10.95;;;19.80;99.90;;;;;;5099264;28;20329;-80
2022/08/09 06:26:22;;;;;;;11.43;11.02;;;19.90;99.90;;;;;;5099843;28;20315;-79
2022/08/09 06:28:50;;;;;;;11.25;10.93;;;20.00;99.90;;;;;;5100017;28;20233;-78
2022/08/09 06:31:19;;;;;;;11.18;10.88;;;20.10;99.90;;;;;;5100510;28;20325;-78
2022/08/09 06:33:47;;;;;;;11.30;11.00;;;20.10;99.90;;;;;;5099495;28;20329;-79
2022/08/09 06:36:14;;;;;;;11.40;11.10;;;20.20;99.90;;;;;;5098948;28;20237;-77
2022/08/09 06:38:43;;;;;;;11.30;11.00;;;20.30;99.90;;;;;;5099332;28;20237;-79
2022/08/09 06:41:11;;;;;;;11.18;10.88;;;20.40;99.90;;;;;;5100173;28;20312;-79
2022/08/09 06:43:41;;;;;;;11.20;10.90;;;20.50;99.90;;;;;;5098921;28;20244;-79
2022/08/09 06:46:08;;;;;;;11.40;11.10;;;20.50;99.90;;;;;;5098434;28;20268;-79
2022/08/09 06:48:37;;;;;;;11.48;11.10;;;20.60;99.90;;;;;;5099022;28;20221;-79
2022/08/09 06:51:05;;;;;;;11.35;11.05;;;20.80;99.90;;;;;;5099365;28;20241;-80
2022/08/09 06:53:33;;;;;;;11.20;10.90;;;20.90;99.90;;;;;;5097900;28;20344;-78
2022/08/09 06:56:01;;;;;;;11.23;10.93;;;21.00;99.90;;;;;;5098562;28;20269;-81
2022/08/09 06:58:30;;;;;;;11.48;11.10;;;21.20;99.90;;;;;;5098091;28;20209;-79
2022/08/09 07:00:59;;;;;;;11.00;10.70;;;21.30;99.90;;;;;;5098935;28;20229;-79
2022/08/09 07:03:27;;;;;;;10.50;10.20;;;21.40;99.90;;;;;;5099174;28;20233;-79
2022/08/09 07:05:55;;;;;;;10.40;10.10;;;21.60;99.90;;;;;;5098609;28;20257;-78
2022/08/09 07:08:24;;;;;;;10.38;10.07;;;21.70;99.90;;;;;;5099788;28;20229;-77
2022/08/09 07:10:53;;;;;;;10.48;10.18;;;21.90;99.90;;;;;;5091500;28;20226;-78
2022/08/09 07:13:21;;;;;;;10.73;10.43;;;21.90;99.90;;;;;;5107968;28;20240;-78
2022/08/09 07:15:52;;;;;;;11.05;10.75;;;21.90;99.90;;;;;;5098169;27;20272;-80
2022/08/09 07:18:21;;;;;;;11.00;10.70;;;22.00;99.90;;;;;;5109205;28;20231;-78
2022/08/09 07:20:51;;;;;;;11.25;10.95;;;22.20;99.90;;;;;;5118774;27;20235;-78
2022/08/09 07:23:21;;;;;;;11.50;11.18;;;22.30;99.90;;;;;;5119200;27;20324;-78
2022/08/09 07:25:48;;;;;;;11.60;11.20;;;22.50;99.90;;;;;;5119010;27;20243;-78
2022/08/09 07:28:16;;;;;;;11.50;11.10;;;22.60;99.90;;;;;;5117673;27;20228;-77
2022/08/09 07:30:45;;;;;;;11.60;11.20;;;22.70;99.90;;;;;;5105303;27;20323;-79
2022/08/09 07:33:17;;;;;;;11.30;11.00;;;22.80;99.90;;;;;;5108944;27;20234;-79
2022/08/09 07:35:49;;;;;;;11.02;10.73;;;22.90;99.90;;;;;;5099205;28;20298;-79
2022/08/09 07:38:17;;;;;;;11.27;10.98;;;23.00;99.90;;;;;;5100262;28;20230;-79
2022/08/09 07:40:46;;;;;;;10.75;10.45;;;23.00;99.90;;;;;;5100085;28;20236;-78
2022/08/09 07:43:14;;;;;;;11.00;10.70;;;23.00;99.90;;;;;;5098380;28;20312;-77
2022/08/09 07:45:42;;;;;;;11.02;10.73;;;23.20;99.90;;;;;;5096352;28;20270;-78
2022/08/09 07:48:11;;;;;;;11.40;11.00;;;23.30;99.90;;;;;;5099030;27;20225;-79
2022/08/09 07:50:42;;;;;;;11.07;10.77;;;23.50;99.90;;;;;;5104639;27;20248;-78
2022/08/09 07:53:11;;;;;;;11.13;10.82;;;23.60;99.90;;;;;;5106202;28;20324;-79
2022/08/09 07:55:39;;;;;;;11.10;10.80;;;23.70;99.90;;;;;;5110857;28;20324;-77
2022/08/09 07:58:06;;;;;;;11.02;10.73;;;23.90;99.90;;;;;;5117795;27;20233;-79
2022/08/09 08:00:34;;;;;;;11.20;10.90;;;24.00;99.90;;;;;;5112348;27;20280;-80
2022/08/09 08:03:03;;;;;;;11.15;10.85;;;24.00;99.90;;;;;;5124560;28;20258;-79
2022/08/09 08:05:35;;;;;;;11.30;11.00;;;24.00;99.90;;;;;;5134543;27;20244;-78
2022/08/09 08:08:03;;;;;;;11.50;11.13;;;24.10;99.90;;;;;;5137005;27;20287;-79
2022/08/09 08:10:32;;;;;;;11.57;11.18;;;24.20;99.90;;;;;;5118760;27;20316;-75
2022/08/09 08:13:03;;;;;;;12.00;11.60;;;24.30;99.90;;;;;;5109109;28;20237;-77
2022/08/09 08:15:31;;;;;;;11.82;11.43;;;24.50;99.90;;;;;;5101461;28;20293;-78
2022/08/09 08:17:58;;;;;;;12.02;11.63;;;24.60;99.90;;;;;;5104497;28;20237;-77
2022/08/09 08:20:29;;;;;;;11.55;11.15;;;24.80;99.90;;;;;;5098885;28;20233;-77
2022/08/09 08:22:57;;;;;;;11.38;11.07;;;24.80;99.90;;;;;;5100415;28;20229;-77
2022/08/09 08:25:28;;;;;;;10.70;10.40;;;24.90;99.90;;;;;;5101020;28;20297;-77
2022/08/09 08:27:58;;;;;;;10.63;10.32;;;25.00;99.90;;;;;;5102780;28;20229;-79
2022/08/09 08:30:26;;;;;;;10.88;10.57;;;25.10;99.90;;;;;;5102649;28;20225;-79
2022/08/09 08:32:57;;;;;;;10.60;10.30;;;25.30;99.90;;;;;;5099977;28;20251;-79
2022/08/09 08:35:28;;;;;;;10.90;10.60;;;25.40;99.90;;;;;;5099608;28;20244;-78
2022/08/09 08:37:57;;;;;;;10.60;10.30;;;25.60;99.90;;;;;;5099930;28;20299;-78
2022/08/09 08:40:25;;;;;;;11.50;11.10;;;25.80;99.90;;;;;;5107376;28;20232;-78
2022/08/09 08:42:54;;;;;;;11.27;10.98;;;26.00;99.90;;;;;;5106370;28;20229;-78
2022/08/09 08:45:32;;;;;;;11.23;10.93;;;25.90;99.90;;;;;;5107174;28;20229;-78
2022/08/09 08:48:00;;;;;;;11.30;11.00;;;26.20;99.90;;;;;;5106789;28;20308;-79
2022/08/09 08:50:28;;;;;;;11.55;11.15;;;26.40;99.90;;;;;;5106279;28;20231;-78
2022/08/09 08:52:56;;;;;;;11.52;11.13;;;26.40;99.90;;;;;;5105307;28;20265;-78
2022/08/09 08:55:27;;;;;;;11.18;10.88;;;26.40;99.90;;;;;;5102128;28;20225;-78
2022/08/09 08:57:55;;;;;;;11.77;11.38;;;26.50;99.90;;;;;;5103351;28;20313;-80
2022/08/09 09:00:24;;;;;;;11.80;11.40;;;26.70;99.90;;;;;;5104586;28;20233;-82
2022/08/09 09:02:52;;;;;;;11.68;11.27;;;26.70;99.90;;;;;;5107598;28;20260;-83
2022/08/09 09:05:32;;;;;;;11.25;10.95;;;26.70;99.90;;;;;;5109010;27;20213;-82
2022/08/09 09:08:01;;;;;;;11.07;10.77;;;26.80;99.90;;;;;;5120028;27;20194;-82
2022/08/09 09:10:31;;;;;;;11.13;10.82;;;26.90;99.90;;;;;;5119699;27;20228;-81
2022/08/09 09:13:08;;;;;;;11.27;10.98;;;27.00;99.90;;;;;;5119350;27;20244;-80
2022/08/09 09:15:38;;;;;;;11.30;11.00;;;27.00;99.90;;;;;;5112698;27;20297;-82
2022/08/09 09:18:06;;;;;;;11.25;10.95;;;27.10;99.90;;;;;;5094570;28;20286;-82
2022/08/09 09:20:37;;;;;;;11.23;10.93;;;27.20;99.90;;;;;;5109760;27;20233;-81
2022/08/09 09:23:05;;;;;;;11.38;11.05;;;27.20;99.90;;;;;;5117691;27;20239;-81
2022/08/09 09:25:35;;;;;;;11.30;11.00;;;27.60;99.90;;;;;;5116114;27;20237;-81
2022/08/09 09:28:05;;;;;;;11.23;10.93;;;27.80;99.90;;;;;;5115704;28;20261;-81
2022/08/09 09:30:33;;;;;;;11.32;11.02;;;27.80;99.90;;;;;;5115527;28;20229;-81
2022/08/09 09:33:14;;;;;;;11.77;11.38;;;27.80;99.90;;;;;;5113538;27;20230;-82
2022/08/09 09:36:00;;;;;;;11.57;11.18;;;27.70;99.90;;;;;;5108830;28;20241;-82
2022/08/09 09:38:45;;;;;;;11.55;11.20;;;27.60;99.90;;;;;;5106846;28;20221;-82
2022/08/09 09:41:32;;;;;;;11.40;11.10;;;27.80;99.90;;;;;;5108708;28;20234;-81
2022/08/09 09:44:03;;;;;;;11.00;10.70;;;28.30;99.90;;;;;;5099928;27;20249;-84
2022/08/09 09:46:32;;;;;;;11.60;11.20;;;28.40;99.90;;;;;;5086749;28;20317;-83
2022/08/09 09:49:09;;;;;;;11.48;11.07;;;28.60;99.90;;;;;;5084004;28;20238;-82
2022/08/09 09:51:38;;;;;;;11.38;11.05;;;28.60;99.90;;;;;;5084283;28;20260;-84
2022/08/09 09:54:09;;;;;;;11.73;11.32;;;28.60;99.90;;;;;;5083220;28;20238;-82
2022/08/09 09:56:39;;;;;;;11.90;11.50;;;28.90;99.90;;;;;;5083034;28;20241;-82
2022/08/09 09:59:08;;;;;;;11.88;11.48;;;29.10;99.90;;;;;;5083794;28;20290;-82
2022/08/09 10:01:36;;;;;;;11.63;11.23;;;29.00;99.90;;;;;;5084035;28;20249;-82
2022/08/09 10:04:17;;;;;;;11.70;11.30;;;29.10;99.90;;;;;;5087720;28;20241;-83
2022/08/09 10:06:47;;;;;;;11.50;11.15;;;29.40;99.90;;;;;;5084243;28;20225;-82
2022/08/09 10:09:16;;;;;;;11.90;11.50;;;29.60;99.90;;;;;;5083218;28;20671;-82
2022/08/09 10:11:43;;;;;;;11.27;10.98;;;29.70;99.90;;;;;;5083384;28;20321;-81
2022/08/09 10:14:22;;;;;;;11.80;11.40;;;29.70;99.90;;;;;;5081031;28;20273;-81
2022/08/09 10:16:51;;;;;;;11.73;11.32;;;29.60;99.90;;;;;;5079949;28;20233;-82
2022/08/09 10:19:40;;;;;;;11.63;11.23;;;29.70;99.90;;;;;;5080394;28;20226;-82
2022/08/09 10:22:08;;;;;;;11.65;11.25;;;29.80;99.90;;;;;;5081352;28;20234;-82
2022/08/09 10:24:38;;;;;;;11.48;11.10;;;29.90;99.90;;;;;;5092883;28;20242;-82
2022/08/09 10:27:08;;;;;;;11.25;10.95;;;30.00;99.90;;;;;;5100204;28;20238;-81
2022/08/09 10:29:37;;;;;;;11.50;11.10;;;29.80;99.90;;;;;;5100455;28;20215;-81
2022/08/09 10:32:06;;;;;;;11.35;11.05;;;29.60;99.90;;;;;;5099860;28;20260;-82
2022/08/09 10:34:38;;;;;;;11.38;11.07;;;29.40;99.90;;;;;;5099607;28;20240;-81
2022/08/09 10:37:06;;;;;;;11.48;11.07;;;29.40;99.90;;;;;;5097819;28;20269;-81
2022/08/09 10:39:35;;;;;;;11.60;11.20;;;29.40;99.90;;;;;;5092164;28;20248;-82
2022/08/09 10:42:04;;;;;;;11.25;10.95;;;29.60;99.90;;;;;;5087565;28;20287;-82
2022/08/09 10:44:34;;;;;;;11.07;10.77;;;29.80;99.90;;;;;;5084875;28;20245;-82
2022/08/09 10:47:30;;;;;;;11.00;10.70;;;30.10;99.90;;;;;;5085369;28;20230;-82
2022/08/09 10:50:08;;;;;;;11.10;10.80;;;30.00;99.90;;;;;;5082859;28;20224;-83
2022/08/09 10:53:02;;;;;;;11.38;10.98;;;29.80;99.90;;;;;;5084936;28;20337;-83
2022/08/09 10:55:33;;;;;;;11.60;11.20;;;30.20;99.90;;;;;;5082529;28;20242;-81
2022/08/09 10:58:03;;;;;;;11.20;10.88;;;30.60;99.90;;;;;;5082391;28;20748;-83
2022/08/09 11:00:42;;;;;;;11.65;11.25;;;30.60;99.90;;;;;;5082479;28;20253;-81
2022/08/09 11:03:22;;;;;;;11.63;11.23;;;30.30;99.80;;;;;;5081681;28;20268;-82
2022/08/09 11:06:24;;;;;;;11.70;11.30;;;30.10;99.90;;;;;;5081421;28;20297;-82
2022/08/09 11:08:53;;;;;;;10.90;10.60;;;30.00;98.80;;;;;;5081162;28;20324;-81
2022/08/09 11:11:23;;;;;;;11.07;10.77;;;29.80;99.90;;;;;;5081048;28;20225;-83
2022/08/09 11:14:30;;;;;;;11.38;11.07;;;30.00;99.90;;;;;;5105617;22;20294;-85
2022/08/09 11:16:58;;;;;;;11.38;11.00;;;30.70;99.90;;;;;;5081881;28;20332;-84
2022/08/09 11:19:54;;;;;;;12.10;11.70;;;31.40;99.90;;;;;;5080617;28;20417;-85
2022/08/09 11:22:59;;;;;;;11.50;11.10;;;31.70;98.50;;;;;;5081452;28;20233;-86
2022/08/09 11:25:44;;;;;;;11.50;11.10;;;31.80;98.70;;;;;;5060067;28;20276;-87
2022/08/09 11:28:40;;;;;;;11.73;11.32;;;32.00;98.10;;;;;;5060461;28;20276;-86
2022/08/09 11:31:46;;;;;;;11.80;11.40;;;32.10;98.10;;;;;;5062488;28;20265;-86
2022/08/09 11:34:42;;;;;;;11.68;11.27;;;32.30;97.40;;;;;;5060701;28;20286;-87
2022/08/09 11:37:11;;;;;;;11.73;11.32;;;32.60;97.20;;;;;;5060800;28;20245;-86
2022/08/09 11:40:17;;;;;;;11.70;11.30;;;33.00;97.90;;;;;;5061012;28;20337;-87
2022/08/09 11:42:54;;;;;;;11.90;11.50;;;33.10;95.50;;;;;;5019332;28;20261;-87
2022/08/09 11:45:37;;;;;;;12.05;11.65;;;33.20;96.40;;;;;;5054095;28;20296;-86
2022/08/09 11:48:19;;;;;;;11.75;11.35;;;33.10;96.30;;;;;;5059978;28;20254;-87
2022/08/09 11:51:05;;;;;;;11.65;11.25;;;32.90;95.30;;;;;;5060476;28;20234;-86
2022/08/09 11:53:43;;;;;;;11.68;11.27;;;32.40;94.20;;;;;;5061605;28;20234;-87
2022/08/09 11:56:30;;;;;;;11.60;11.20;;;32.20;94.60;;;;;;5060427;28;20243;-86
2022/08/09 11:59:00;;;;;;;11.82;11.43;;;31.70;93.90;;;;;;5060234;28;20285;-85
2022/08/09 12:01:41;;;;;;;11.70;11.30;;;31.50;95.20;;;;;;5081493;28;20226;-85
2022/08/09 12:04:17;;;;;;;11.70;11.30;;;31.40;95.20;;;;;;5080661;28;20235;-85
2022/08/09 12:06:58;;;;;;;11.45;11.13;;;31.30;95.10;;;;;;5081203;28;20241;-85
2022/08/09 12:09:35;;;;;;;11.60;11.20;;;31.20;94.90;;;;;;5081756;28;20234;-86
2022/08/09 12:12:08;;;;;;;11.27;10.98;;;31.00;95.50;;;;;;5081056;28;20225;-85
2022/08/09 12:14:36;;;;;;;11.05;10.75;;;31.10;96.20;;;;;;5081531;28;20234;-85
2022/08/09 12:17:07;;;;;;;11.05;10.75;;;31.50;95.80;;;;;;5088645;28;20226;-86
2022/08/09 12:19:43;;;;;;;11.40;11.10;;;32.00;95.70;;;;;;5100390;28;20218;-87
2022/08/09 12:22:11;;;;;;;11.20;10.90;;;32.40;95.10;;;;;;5099832;28;20289;-86
2022/08/09 12:24:39;;;;;;;11.23;10.93;;;32.80;93.40;;;;;;5099812;28;20265;-87
2022/08/09 12:27:38;;;;;;;11.27;10.98;;;33.30;95.10;;;;;;5086599;28;20226;-87
2022/08/09 12:30:07;;;;;;;11.25;10.95;;;33.80;94.00;;;;;;5080979;28;20272;-87
2022/08/09 12:32:35;;;;;;;11.25;10.95;;;34.30;93.30;;;;;;5080424;28;20241;-89
2022/08/09 12:35:24;;;;;;;11.27;10.98;;;34.50;92.80;;;;;;5080276;28;20324;-88
2022/08/09 12:37:52;;;;;;;11.40;11.10;;;34.70;91.50;;;;;;5080639;28;20218;-85
2022/08/09 12:40:21;;;;;;;11.35;11.05;;;34.70;92.80;;;;;;5079779;28;20225;-86
2022/08/09 12:43:25;;;;;;;11.15;10.85;;;34.60;92.70;;;;;;5080199;28;20234;-86
2022/08/09 12:45:56;;;;;;;11.73;11.32;;;34.00;91.80;;;;;;5079805;28;20627;-85
2022/08/09 12:48:25;;;;;;;11.20;10.90;;;34.30;92.60;;;;;;5080723;28;20294;-83
2022/08/09 12:50:53;;;;;;;11.30;11.00;;;34.70;92.80;;;;;;5081079;28;20254;-84
2022/08/09 12:53:32;;;;;;;11.63;11.25;;;34.60;91.70;;;;;;5088443;28;20230;-83
2022/08/09 12:56:12;;;;;;;11.30;11.00;;;34.50;92.90;;;;;;5098324;28;20244;-82